sensor_id;sensor_type;location;lat;lon;timestamp;pressure;altitude;pressure_sealevel;temperature;humidity
72721;BME280;60835;50.974;10.322;2023-03-21T00:00:38;98719.84;;;8.55;100.00
72721;BME280;60835;50.974;10.322;2023-03-21T00:03:05;98709.94;;;8.47;100.00
72721;BME280;60835;50.974;10.322;2023-03-21T00:05:32;98699.59;;;8.65;100.00
72721;BME280;60835;50.974;10.322;2023-03-21T00:07:58;98694.69;;;8.41;100.00
72721;BME280;60835;50.974;10.322;2023-03-21T00:10:27;98701.91;;;8.58;100.00
72721;BME280;60835;50.974;10.322;2023-03-21T00:13:10;98708.56;;;8.53;100.00
72721;BME280;60835;50.974;10.322;2023-03-21T00:15:39;98700.28;;;8.57;100.00
72721;BME280;60835;50.974;10.322;2023-03-21T00:18:35;98700.81;;;8.51;100.00
72721;BME280;60835;50.974;10.322;2023-03-21T00:21:04;98703.56;;;8.50;100.00
72721;BME280;60835;50.974;10.322;2023-03-21T00:23:51;98699.00;;;8.52;100.00
72721;BME280;60835;50.974;10.322;2023-03-21T00:26:18;98694.13;;;8.47;100.00
72721;BME280;60835;50.974;10.322;2023-03-21T00:28:44;98689.94;;;8.45;100.00
72721;BME280;60835;50.974;10.322;2023-03-21T00:31:11;98678.28;;;8.47;100.00
72721;BME280;60835;50.974;10.322;2023-03-21T00:33:37;98691.22;;;8.50;100.00
72721;BME280;60835;50.974;10.322;2023-03-21T00:36:06;98693.84;;;8.50;100.00
72721;BME280;60835;50.974;10.322;2023-03-21T00:38:34;98692.47;;;8.46;100.00
72721;BME280;60835;50.974;10.322;2023-03-21T00:41:08;98685.66;;;8.53;100.00
72721;BME280;60835;50.974;10.322;2023-03-21T00:43:48;98684.72;;;8.54;100.00
72721;BME280;60835;50.974;10.322;2023-03-21T00:46:15;98677.91;;;8.62;100.00
72721;BME280;60835;50.974;10.322;2023-03-21T00:48:41;98676.53;;;8.57;100.00
72721;BME280;60835;50.974;10.322;2023-03-21T00:51:13;98673.91;;;8.57;100.00
72721;BME280;60835;50.974;10.322;2023-03-21T00:53:46;98670.84;;;8.72;100.00
72721;BME280;60835;50.974;10.322;2023-03-21T00:56:13;98675.44;;;8.60;100.00
72721;BME280;60835;50.974;10.322;2023-03-21T00:58:40;98672.78;;;8.60;100.00
72721;BME280;60835;50.974;10.322;2023-03-21T01:01:07;98668.31;;;8.61;100.00
72721;BME280;60835;50.974;10.322;2023-03-21T01:03:35;98678.19;;;8.58;100.00
72721;BME280;60835;50.974;10.322;2023-03-21T01:06:09;98676.25;;;8.61;100.00
72721;BME280;60835;50.974;10.322;2023-03-21T01:08:40;98668.06;;;8.64;100.00
72721;BME280;60835;50.974;10.322;2023-03-21T01:11:24;98670.00;;;8.62;100.00
72721;BME280;60835;50.974;10.322;2023-03-21T01:13:52;98676.25;;;8.61;100.00
72721;BME280;60835;50.974;10.322;2023-03-21T01:16:39;98663.19;;;8.59;100.00
72721;BME280;60835;50.974;10.322;2023-03-21T01:19:12;98660.88;;;8.66;100.00
72721;BME280;60835;50.974;10.322;2023-03-21T01:21:51;98663.06;;;8.61;100.00
72721;BME280;60835;50.974;10.322;2023-03-21T01:24:18;98658.75;;;8.60;100.00
72721;BME280;60835;50.974;10.322;2023-03-21T01:26:44;98656.13;;;8.60;100.00
72721;BME280;60835;50.974;10.322;2023-03-21T01:29:11;98649.19;;;8.58;100.00
72721;BME280;60835;50.974;10.322;2023-03-21T01:31:38;98653.06;;;8.64;100.00
72721;BME280;60835;50.974;10.322;2023-03-21T01:34:05;98646.53;;;8.58;100.00
72721;BME280;60835;50.974;10.322;2023-03-21T01:36:31;98647.22;;;8.61;100.00
72721;BME280;60835;50.974;10.322;2023-03-21T01:38:58;98642.69;;;8.63;100.00
72721;BME280;60835;50.974;10.322;2023-03-21T01:41:34;98638.94;;;8.75;100.00
72721;BME280;60835;50.974;10.322;2023-03-21T01:44:12;98637.25;;;8.74;100.00
72721;BME280;60835;50.974;10.322;2023-03-21T01:46:42;98642.94;;;8.69;100.00
72721;BME280;60835;50.974;10.322;2023-03-21T01:49:33;98636.72;;;8.80;100.00
72721;BME280;60835;50.974;10.322;2023-03-21T01:52:08;98644.78;;;8.78;100.00
72721;BME280;60835;50.974;10.322;2023-03-21T01:54:45;98641.84;;;8.72;100.00
72721;BME280;60835;50.974;10.322;2023-03-21T01:57:20;98639.47;;;8.69;100.00
72721;BME280;60835;50.974;10.322;2023-03-21T01:59:50;98635.31;;;8.66;100.00
72721;BME280;60835;50.974;10.322;2023-03-21T02:02:24;98643.63;;;8.71;100.00
72721;BME280;60835;50.974;10.322;2023-03-21T02:04:52;98635.59;;;8.73;100.00
72721;BME280;60835;50.974;10.322;2023-03-21T02:07:27;98644.75;;;8.69;100.00
72721;BME280;60835;50.974;10.322;2023-03-21T02:09:55;98633.91;;;8.62;100.00
72721;BME280;60835;50.974;10.322;2023-03-21T02:12:22;98630.31;;;8.73;100.00
72721;BME280;60835;50.974;10.322;2023-03-21T02:14:51;98630.44;;;8.62;100.00
72721;BME280;60835;50.974;10.322;2023-03-21T02:17:21;98624.47;;;8.69;100.00
72721;BME280;60835;50.974;10.322;2023-03-21T02:34:20;98616.72;;;8.68;100.00
72721;BME280;60835;50.974;10.322;2023-03-21T02:37:17;98620.84;;;8.61;100.00
72721;BME280;60835;50.974;10.322;2023-03-21T02:42:36;98605.88;;;8.61;100.00
72721;BME280;60835;50.974;10.322;2023-03-21T02:45:24;98600.75;;;8.69;100.00
72721;BME280;60835;50.974;10.322;2023-03-21T02:47:56;98603.13;;;8.63;100.00
72721;BME280;60835;50.974;10.322;2023-03-21T02:52:57;98596.00;;;8.63;100.00
72721;BME280;60835;50.974;10.322;2023-03-21T02:55:30;98600.63;;;8.71;100.00
72721;BME280;60835;50.974;10.322;2023-03-21T02:57:58;98603.81;;;8.65;100.00
72721;BME280;60835;50.974;10.322;2023-03-21T03:00:38;98602.84;;;8.66;100.00
72721;BME280;60835;50.974;10.322;2023-03-21T03:03:05;98602.84;;;8.66;100.00
72721;BME280;60835;50.974;10.322;2023-03-21T03:05:51;98595.63;;;8.68;100.00
72721;BME280;60835;50.974;10.322;2023-03-21T03:11:37;98606.69;;;8.71;100.00
72721;BME280;60835;50.974;10.322;2023-03-21T03:17:16;98590.63;;;8.65;100.00
72721;BME280;60835;50.974;10.322;2023-03-21T03:25:52;98598.66;;;8.73;100.00
72721;BME280;60835;50.974;10.322;2023-03-21T03:28:25;98606.69;;;8.71;100.00
72721;BME280;60835;50.974;10.322;2023-03-21T03:30:54;98587.72;;;8.68;100.00
72721;BME280;60835;50.974;10.322;2023-03-21T03:33:37;98593.66;;;8.70;100.00
72721;BME280;60835;50.974;10.322;2023-03-21T03:36:09;98595.34;;;8.71;100.00
72721;BME280;60835;50.974;10.322;2023-03-21T03:38:54;98599.34;;;8.75;100.00
72721;BME280;60835;50.974;10.322;2023-03-21T03:41:26;98589.50;;;8.77;100.00
72721;BME280;60835;50.974;10.322;2023-03-21T03:43:59;98602.00;;;8.75;100.00
72721;BME280;60835;50.974;10.322;2023-03-21T03:46:33;98595.50;;;8.79;100.00
72721;BME280;60835;50.974;10.322;2023-03-21T03:49:09;98591.44;;;8.75;100.00
72721;BME280;60835;50.974;10.322;2023-03-21T03:51:46;98600.47;;;8.82;100.00
72721;BME280;60835;50.974;10.322;2023-03-21T03:54:20;98603.69;;;8.76;100.00
72721;BME280;60835;50.974;10.322;2023-03-21T03:56:48;98588.94;;;8.83;100.00
72721;BME280;60835;50.974;10.322;2023-03-21T03:59:16;98588.53;;;8.78;100.00
72721;BME280;60835;50.974;10.322;2023-03-21T04:01:44;98600.47;;;8.82;100.00
72721;BME280;60835;50.974;10.322;2023-03-21T04:04:11;98597.28;;;8.88;100.00
72721;BME280;60835;50.974;10.322;2023-03-21T04:06:39;98605.59;;;8.93;100.00
72721;BME280;60835;50.974;10.322;2023-03-21T04:09:06;98605.34;;;8.86;100.00
72721;BME280;60835;50.974;10.322;2023-03-21T04:11:45;98607.81;;;8.88;100.00
72721;BME280;60835;50.974;10.322;2023-03-21T04:14:12;98591.31;;;8.86;100.00
72721;BME280;60835;50.974;10.322;2023-03-21T04:16:39;98590.47;;;8.85;100.00
72721;BME280;60835;50.974;10.322;2023-03-21T04:19:06;98604.78;;;8.83;100.00
72721;BME280;60835;50.974;10.322;2023-03-21T04:21:33;98590.59;;;8.74;100.00
72721;BME280;60835;50.974;10.322;2023-03-21T04:23:59;98588.94;;;8.83;100.00
72721;BME280;60835;50.974;10.322;2023-03-21T04:26:26;98586.47;;;8.81;100.00
72721;BME280;60835;50.974;10.322;2023-03-21T04:28:58;98588.66;;;8.86;100.00
72721;BME280;60835;50.974;10.322;2023-03-21T04:31:26;98585.47;;;8.92;100.00
72721;BME280;60835;50.974;10.322;2023-03-21T04:33:53;98587.00;;;8.85;100.00
72721;BME280;60835;50.974;10.322;2023-03-21T04:36:21;98583.66;;;8.83;100.00
72721;BME280;60835;50.974;10.322;2023-03-21T04:38:53;98574.22;;;8.80;100.00
72721;BME280;60835;50.974;10.322;2023-03-21T04:41:22;98577.69;;;8.90;100.00
72721;BME280;60835;50.974;10.322;2023-03-21T04:43:49;98581.44;;;8.88;100.00
72721;BME280;60835;50.974;10.322;2023-03-21T04:46:17;98589.34;;;8.88;100.00
72721;BME280;60835;50.974;10.322;2023-03-21T04:48:44;98593.66;;;8.79;100.00
72721;BME280;60835;50.974;10.322;2023-03-21T04:51:10;98601.03;;;8.85;100.00
72721;BME280;60835;50.974;10.322;2023-03-21T04:53:37;98589.50;;;8.86;100.00
72721;BME280;60835;50.974;10.322;2023-03-21T04:56:05;98589.63;;;8.85;100.00
72721;BME280;60835;50.974;10.322;2023-03-21T04:58:31;98589.22;;;8.89;100.00
72721;BME280;60835;50.974;10.322;2023-03-21T05:00:58;98580.88;;;8.84;100.00
72721;BME280;60835;50.974;10.322;2023-03-21T05:03:27;98580.59;;;8.87;100.00
72721;BME280;60835;50.974;10.322;2023-03-21T05:05:56;98581.72;;;8.85;100.00
72721;BME280;60835;50.974;10.322;2023-03-21T05:08:23;98570.19;;;8.86;100.00
72721;BME280;60835;50.974;10.322;2023-03-21T05:10:49;98577.84;;;8.70;100.00
72721;BME280;60835;50.974;10.322;2023-03-21T05:13:16;98575.34;;;8.78;100.00
72721;BME280;60835;50.974;10.322;2023-03-21T05:15:42;98573.13;;;8.73;100.00
72721;BME280;60835;50.974;10.322;2023-03-21T05:18:09;98562.28;;;8.67;100.00
72721;BME280;60835;50.974;10.322;2023-03-21T05:20:38;98572.03;;;8.76;100.00
72721;BME280;60835;50.974;10.322;2023-03-21T05:23:11;98570.63;;;8.72;100.00
72721;BME280;60835;50.974;10.322;2023-03-21T05:25:38;98577.03;;;8.79;100.00
72721;BME280;60835;50.974;10.322;2023-03-21T05:28:06;98570.34;;;8.75;100.00
72721;BME280;60835;50.974;10.322;2023-03-21T05:30:33;98575.06;;;8.81;100.00
72721;BME280;60835;50.974;10.322;2023-03-21T05:32:59;98583.50;;;8.84;100.00
72721;BME280;60835;50.974;10.322;2023-03-21T05:35:26;98574.53;;;8.87;100.00
72721;BME280;60835;50.974;10.322;2023-03-21T05:37:53;98569.94;;;8.89;100.00
72721;BME280;60835;50.974;10.322;2023-03-21T05:40:20;98572.84;;;8.86;100.00
72721;BME280;60835;50.974;10.322;2023-03-21T05:42:47;98564.25;;;8.84;100.00
72721;BME280;60835;50.974;10.322;2023-03-21T05:45:14;98569.06;;;8.98;100.00
72721;BME280;60835;50.974;10.322;2023-03-21T05:47:41;98571.72;;;8.98;100.00
72721;BME280;60835;50.974;10.322;2023-03-21T05:50:09;98581.84;;;8.93;100.00
72721;BME280;60835;50.974;10.322;2023-03-21T05:52:36;98583.13;;;8.89;100.00
72721;BME280;60835;50.974;10.322;2023-03-21T05:55:03;98572.69;;;8.78;100.00
72721;BME280;60835;50.974;10.322;2023-03-21T05:57:30;98599.78;;;8.99;100.00
72721;BME280;60835;50.974;10.322;2023-03-21T06:00:00;98583.38;;;9.05;100.00
72721;BME280;60835;50.974;10.322;2023-03-21T06:02:27;98568.91;;;9.09;100.00
72721;BME280;60835;50.974;10.322;2023-03-21T06:04:54;98596.44;;;9.06;100.00
72721;BME280;60835;50.974;10.322;2023-03-21T06:07:21;98606.44;;;9.12;100.00
72721;BME280;60835;50.974;10.322;2023-03-21T06:09:48;98602.25;;;9.10;100.00
72721;BME280;60835;50.974;10.322;2023-03-21T06:12:15;98591.13;;;9.16;100.00
72721;BME280;60835;50.974;10.322;2023-03-21T06:14:42;98596.84;;;9.11;100.00
72721;BME280;60835;50.974;10.322;2023-03-21T06:17:08;98593.66;;;9.08;100.00
72721;BME280;60835;50.974;10.322;2023-03-21T06:19:35;98592.94;;;9.06;100.00
72721;BME280;60835;50.974;10.322;2023-03-21T06:22:02;98578.09;;;8.95;100.00
72721;BME280;60835;50.974;10.322;2023-03-21T06:24:29;98597.25;;;9.16;100.00
72721;BME280;60835;50.974;10.322;2023-03-21T06:26:55;98600.84;;;9.25;100.00
72721;BME280;60835;50.974;10.322;2023-03-21T06:29:22;98609.84;;;9.32;100.00
72721;BME280;60835;50.974;10.322;2023-03-21T06:31:48;98607.38;;;9.31;100.00
72721;BME280;60835;50.974;10.322;2023-03-21T06:34:15;98611.25;;;9.36;100.00
72721;BME280;60835;50.974;10.322;2023-03-21T06:36:42;98597.66;;;9.31;100.00
72721;BME280;60835;50.974;10.322;2023-03-21T06:39:10;98617.91;;;9.40;100.00
72721;BME280;60835;50.974;10.322;2023-03-21T06:41:37;98605.41;;;9.33;100.00
72721;BME280;60835;50.974;10.322;2023-03-21T06:44:06;98636.66;;;9.47;100.00
72721;BME280;60835;50.974;10.322;2023-03-21T06:46:32;98621.81;;;9.36;100.00
72721;BME280;60835;50.974;10.322;2023-03-21T06:48:59;98650.50;;;9.58;100.00
72721;BME280;60835;50.974;10.322;2023-03-21T06:51:26;98663.84;;;9.66;100.00
72721;BME280;60835;50.974;10.322;2023-03-21T06:53:52;98668.78;;;9.89;100.00
72721;BME280;60835;50.974;10.322;2023-03-21T06:56:19;98678.78;;;9.95;100.00
72721;BME280;60835;50.974;10.322;2023-03-21T06:58:46;98671.38;;;9.61;100.00
72721;BME280;60835;50.974;10.322;2023-03-21T07:01:12;98663.00;;;9.75;100.00
72721;BME280;60835;50.974;10.322;2023-03-21T07:03:40;98679.59;;;10.05;100.00
72721;BME280;60835;50.974;10.322;2023-03-21T07:06:08;98698.81;;;9.88;100.00
72721;BME280;60835;50.974;10.322;2023-03-21T07:08:39;98701.34;;;9.89;100.00
72721;BME280;60835;50.974;10.322;2023-03-21T07:11:09;98685.81;;;9.76;100.00
72721;BME280;60835;50.974;10.322;2023-03-21T07:13:36;98715.78;;;10.68;100.00
72721;BME280;60835;50.974;10.322;2023-03-21T07:16:02;98771.63;;;10.75;100.00
72721;BME280;60835;50.974;10.322;2023-03-21T07:18:30;98842.94;;;11.48;100.00
72721;BME280;60835;50.974;10.322;2023-03-21T07:20:57;98893.72;;;11.44;100.00
72721;BME280;60835;50.974;10.322;2023-03-21T07:23:25;98910.66;;;11.06;100.00
72721;BME280;60835;50.974;10.322;2023-03-21T07:25:53;98903.63;;;11.15;100.00
72721;BME280;60835;50.974;10.322;2023-03-21T07:28:21;98915.75;;;12.25;100.00
72721;BME280;60835;50.974;10.322;2023-03-21T07:30:53;98963.44;;;11.99;100.00
72721;BME280;60835;50.974;10.322;2023-03-21T07:33:22;98959.78;;;11.82;100.00
72721;BME280;60835;50.974;10.322;2023-03-21T07:35:50;98951.75;;;12.88;100.00
72721;BME280;60835;50.974;10.322;2023-03-21T07:38:19;98993.13;;;12.55;100.00
72721;BME280;60835;50.974;10.322;2023-03-21T07:40:46;98995.38;;;14.29;100.00
72721;BME280;60835;50.974;10.322;2023-03-21T07:43:14;99023.25;;;14.09;100.00
72721;BME280;60835;50.974;10.322;2023-03-21T07:45:41;99022.72;;;13.89;100.00
72721;BME280;60835;50.974;10.322;2023-03-21T07:48:09;99003.78;;;13.58;100.00
72721;BME280;60835;50.974;10.322;2023-03-21T07:50:39;99005.91;;;14.38;100.00
72721;BME280;60835;50.974;10.322;2023-03-21T07:53:06;99019.78;;;14.08;100.00
72721;BME280;60835;50.974;10.322;2023-03-21T07:55:33;98981.84;;;12.53;100.00
72721;BME280;60835;50.974;10.322;2023-03-21T07:58:03;99015.78;;;12.85;100.00
72721;BME280;60835;50.974;10.322;2023-03-21T08:00:30;99008.41;;;12.97;100.00
72721;BME280;60835;50.974;10.322;2023-03-21T08:02:58;99019.91;;;12.27;100.00
72721;BME280;60835;50.974;10.322;2023-03-21T08:05:33;99010.75;;;12.39;100.00
72721;BME280;60835;50.974;10.322;2023-03-21T08:08:01;99005.69;;;12.71;100.00
72721;BME280;60835;50.974;10.322;2023-03-21T08:10:28;99002.53;;;12.67;100.00
72721;BME280;60835;50.974;10.322;2023-03-21T08:12:55;98973.88;;;12.53;100.00
72721;BME280;60835;50.974;10.322;2023-03-21T08:15:21;98997.13;;;13.03;100.00
72721;BME280;60835;50.974;10.322;2023-03-21T08:17:48;98993.22;;;13.74;100.00
72721;BME280;60835;50.974;10.322;2023-03-21T08:20:18;99008.56;;;15.11;100.00
72721;BME280;60835;50.974;10.322;2023-03-21T08:22:47;99024.88;;;13.93;100.00
72721;BME280;60835;50.974;10.322;2023-03-21T08:25:17;98996.69;;;13.67;100.00
72721;BME280;60835;50.974;10.322;2023-03-21T08:27:45;99012.59;;;13.25;100.00
72721;BME280;60835;50.974;10.322;2023-03-21T08:30:14;99011.47;;;14.11;100.00
72721;BME280;60835;50.974;10.322;2023-03-21T08:32:42;99010.16;;;14.15;100.00
72721;BME280;60835;50.974;10.322;2023-03-21T08:35:11;98985.13;;;15.61;100.00
72721;BME280;60835;50.974;10.322;2023-03-21T08:37:39;99029.47;;;15.62;100.00
72721;BME280;60835;50.974;10.322;2023-03-21T08:40:13;99032.50;;;16.60;100.00
72721;BME280;60835;50.974;10.322;2023-03-21T08:42:42;99025.03;;;15.06;100.00
72721;BME280;60835;50.974;10.322;2023-03-21T08:45:10;99032.56;;;14.95;100.00
72721;BME280;60835;50.974;10.322;2023-03-21T08:47:37;99027.69;;;13.84;100.00
72721;BME280;60835;50.974;10.322;2023-03-21T08:50:07;99029.25;;;14.77;100.00
72721;BME280;60835;50.974;10.322;2023-03-21T08:52:34;99009.84;;;14.26;100.00
72721;BME280;60835;50.974;10.322;2023-03-21T08:55:01;99006.25;;;14.51;100.00
72721;BME280;60835;50.974;10.322;2023-03-21T08:57:28;99026.25;;;16.14;100.00
72721;BME280;60835;50.974;10.322;2023-03-21T08:59:55;99022.91;;;14.94;100.00
72721;BME280;60835;50.974;10.322;2023-03-21T09:02:22;99023.69;;;16.74;100.00
72721;BME280;60835;50.974;10.322;2023-03-21T09:04:49;99011.59;;;17.52;100.00
72721;BME280;60835;50.974;10.322;2023-03-21T09:07:20;99009.28;;;16.83;100.00
72721;BME280;60835;50.974;10.322;2023-03-21T09:09:47;99033.19;;;16.76;100.00
72721;BME280;60835;50.974;10.322;2023-03-21T09:12:37;99042.75;;;16.71;100.00
72721;BME280;60835;50.974;10.322;2023-03-21T09:15:05;99044.66;;;16.31;100.00
72721;BME280;60835;50.974;10.322;2023-03-21T09:17:33;99037.50;;;15.46;100.00
72721;BME280;60835;50.974;10.322;2023-03-21T09:20:00;99038.53;;;14.56;100.00
72721;BME280;60835;50.974;10.322;2023-03-21T09:22:33;99036.28;;;16.12;100.00
72721;BME280;60835;50.974;10.322;2023-03-21T09:25:00;99034.56;;;14.93;100.00
72721;BME280;60835;50.974;10.322;2023-03-21T09:27:28;99026.91;;;14.82;100.00
72721;BME280;60835;50.974;10.322;2023-03-21T09:29:54;99014.41;;;14.58;100.00
72721;BME280;60835;50.974;10.322;2023-03-21T09:32:22;99026.47;;;15.57;100.00
72721;BME280;60835;50.974;10.322;2023-03-21T09:34:49;99030.88;;;14.94;100.00
72721;BME280;60835;50.974;10.322;2023-03-21T09:37:16;99002.72;;;14.43;100.00
72721;BME280;60835;50.974;10.322;2023-03-21T09:39:43;98994.25;;;14.96;100.00
72721;BME280;60835;50.974;10.322;2023-03-21T09:45:33;99007.94;;;14.93;100.00
72721;BME280;60835;50.974;10.322;2023-03-21T09:48:05;99005.66;;;15.53;100.00
72721;BME280;60835;50.974;10.322;2023-03-21T09:50:41;99030.53;;;15.13;100.00
72721;BME280;60835;50.974;10.322;2023-03-21T09:53:27;99015.56;;;14.47;100.00
72721;BME280;60835;50.974;10.322;2023-03-21T09:55:56;99010.94;;;14.82;100.00
72721;BME280;60835;50.974;10.322;2023-03-21T09:58:32;99006.44;;;14.82;100.00
72721;BME280;60835;50.974;10.322;2023-03-21T10:01:05;99007.25;;;14.50;100.00
72721;BME280;60835;50.974;10.322;2023-03-21T10:03:36;98985.97;;;16.54;100.00
72721;BME280;60835;50.974;10.322;2023-03-21T10:06:10;99010.88;;;15.30;100.00
72721;BME280;60835;50.974;10.322;2023-03-21T10:08:44;98995.56;;;16.63;100.00
72721;BME280;60835;50.974;10.322;2023-03-21T10:11:24;98990.00;;;16.19;100.00
72721;BME280;60835;50.974;10.322;2023-03-21T10:14:02;99002.69;;;15.87;100.00
72721;BME280;60835;50.974;10.322;2023-03-21T10:16:32;98977.72;;;17.30;100.00
72721;BME280;60835;50.974;10.322;2023-03-21T10:19:08;98979.47;;;17.38;100.00
72721;BME280;60835;50.974;10.322;2023-03-21T10:21:38;98992.06;;;17.81;100.00
72721;BME280;60835;50.974;10.322;2023-03-21T10:24:31;98978.88;;;18.15;100.00
72721;BME280;60835;50.974;10.322;2023-03-21T10:26:59;98996.94;;;17.78;100.00
72721;BME280;60835;50.974;10.322;2023-03-21T10:29:41;98968.38;;;17.99;100.00
72721;BME280;60835;50.974;10.322;2023-03-21T10:32:10;98967.03;;;17.74;100.00
72721;BME280;60835;50.974;10.322;2023-03-21T10:35:06;98982.41;;;20.10;100.00
72721;BME280;60835;50.974;10.322;2023-03-21T10:37:35;98978.56;;;17.89;100.00
72721;BME280;60835;50.974;10.322;2023-03-21T10:40:02;98986.56;;;18.40;100.00
72721;BME280;60835;50.974;10.322;2023-03-21T10:42:31;98988.72;;;17.21;100.00
72721;BME280;60835;50.974;10.322;2023-03-21T10:45:00;98982.34;;;17.80;100.00
72721;BME280;60835;50.974;10.322;2023-03-21T10:47:31;98977.72;;;18.24;100.00
72721;BME280;60835;50.974;10.322;2023-03-21T10:50:05;98968.97;;;19.63;100.00
72721;BME280;60835;50.974;10.322;2023-03-21T10:52:37;98965.00;;;19.52;100.00
72721;BME280;60835;50.974;10.322;2023-03-21T10:55:22;98969.41;;;19.32;100.00
72721;BME280;60835;50.974;10.322;2023-03-21T10:58:06;98984.41;;;18.35;100.00
72721;BME280;60835;50.974;10.322;2023-03-21T11:00:36;98987.16;;;18.20;100.00
72721;BME280;60835;50.974;10.322;2023-03-21T11:03:04;98997.13;;;16.27;100.00
72721;BME280;60835;50.974;10.322;2023-03-21T11:05:37;98987.81;;;15.61;100.00
72721;BME280;60835;50.974;10.322;2023-03-21T11:08:07;98982.28;;;16.02;100.00
72721;BME280;60835;50.974;10.322;2023-03-21T11:13:22;98970.03;;;18.00;100.00
72721;BME280;60835;50.974;10.322;2023-03-21T11:15:55;98966.81;;;17.90;100.00
72721;BME280;60835;50.974;10.322;2023-03-21T11:18:29;98959.88;;;18.10;100.00
72721;BME280;60835;50.974;10.322;2023-03-21T11:21:05;98952.59;;;17.54;100.00
72721;BME280;60835;50.974;10.322;2023-03-21T11:23:34;98966.22;;;17.74;100.00
72721;BME280;60835;50.974;10.322;2023-03-21T11:26:08;98967.75;;;17.24;100.00
72721;BME280;60835;50.974;10.322;2023-03-21T11:28:38;98961.66;;;16.86;100.00
72721;BME280;60835;50.974;10.322;2023-03-21T11:31:06;98967.59;;;15.98;100.00
72721;BME280;60835;50.974;10.322;2023-03-21T11:38:56;98953.28;;;17.19;100.00
72721;BME280;60835;50.974;10.322;2023-03-21T11:41:30;98960.75;;;16.26;100.00
72721;BME280;60835;50.974;10.322;2023-03-21T11:43:58;98960.09;;;16.55;100.00
72721;BME280;60835;50.974;10.322;2023-03-21T11:46:30;98972.50;;;16.85;100.00
72721;BME280;60835;50.974;10.322;2023-03-21T11:48:58;98959.25;;;15.70;100.00
72721;BME280;60835;50.974;10.322;2023-03-21T11:51:40;98940.91;;;17.03;100.00
72721;BME280;60835;50.974;10.322;2023-03-21T11:54:19;98935.84;;;17.08;100.00
72721;BME280;60835;50.974;10.322;2023-03-21T12:00:15;98931.44;;;17.74;100.00
72721;BME280;60835;50.974;10.322;2023-03-21T12:05:51;98922.38;;;18.10;100.00
72721;BME280;60835;50.974;10.322;2023-03-21T12:08:29;98918.78;;;17.68;100.00
72721;BME280;60835;50.974;10.322;2023-03-21T12:16:46;98911.63;;;17.39;100.00
72721;BME280;60835;50.974;10.322;2023-03-21T12:27:49;98909.09;;;17.37;100.00
72721;BME280;60835;50.974;10.322;2023-03-21T12:40:56;98900.34;;;15.79;100.00
72721;BME280;60835;50.974;10.322;2023-03-21T12:44:03;98908.75;;;15.68;100.00
72721;BME280;60835;50.974;10.322;2023-03-21T12:46:58;98900.69;;;15.76;100.00
72721;BME280;60835;50.974;10.322;2023-03-21T12:49:51;98908.47;;;15.55;100.00
72721;BME280;60835;50.974;10.322;2023-03-21T12:52:38;98904.41;;;15.67;100.00
72721;BME280;60835;50.974;10.322;2023-03-21T12:55:15;98907.78;;;15.61;100.00
72721;BME280;60835;50.974;10.322;2023-03-21T13:00:43;98909.31;;;15.56;100.00
72721;BME280;60835;50.974;10.322;2023-03-21T13:03:14;98909.63;;;15.14;100.00
72721;BME280;60835;50.974;10.322;2023-03-21T13:05:54;98880.97;;;15.16;100.00
72721;BME280;60835;50.974;10.322;2023-03-21T13:10:52;98887.44;;;14.58;100.00
72721;BME280;60835;50.974;10.322;2023-03-21T13:16:12;98883.72;;;14.76;100.00
72721;BME280;60835;50.974;10.322;2023-03-21T13:27:29;98875.38;;;14.87;100.00
72721;BME280;60835;50.974;10.322;2023-03-21T13:30:26;98872.31;;;15.14;100.00
72721;BME280;60835;50.974;10.322;2023-03-21T13:33:03;98855.75;;;14.88;100.00
72721;BME280;60835;50.974;10.322;2023-03-21T13:35:34;98870.09;;;14.71;100.00
72721;BME280;60835;50.974;10.322;2023-03-21T13:38:10;98852.31;;;14.63;100.00
72721;BME280;60835;50.974;10.322;2023-03-21T13:40:44;98838.84;;;14.48;100.00
72721;BME280;60835;50.974;10.322;2023-03-21T13:46:07;98838.19;;;14.38;100.00
72721;BME280;60835;50.974;10.322;2023-03-21T13:48:46;98846.78;;;14.73;100.00
72721;BME280;60835;50.974;10.322;2023-03-21T13:54:14;98824.88;;;13.98;100.00
72721;BME280;60835;50.974;10.322;2023-03-21T13:59:16;98807.91;;;14.47;100.00
72721;BME280;60835;50.974;10.322;2023-03-21T14:04:31;98813.25;;;14.47;100.00
72721;BME280;60835;50.974;10.322;2023-03-21T14:07:22;98801.28;;;14.03;100.00
72721;BME280;60835;50.974;10.322;2023-03-21T14:09:51;98785.97;;;14.29;100.00
72721;BME280;60835;50.974;10.322;2023-03-21T14:12:22;98790.28;;;14.06;100.00
72721;BME280;60835;50.974;10.322;2023-03-21T14:14:52;98790.16;;;13.91;100.00
72721;BME280;60835;50.974;10.322;2023-03-21T14:17:35;98788.97;;;14.26;100.00
72721;BME280;60835;50.974;10.322;2023-03-21T14:20:14;98760.06;;;13.75;100.00
72721;BME280;60835;50.974;10.322;2023-03-21T14:22:41;98764.72;;;13.97;100.00
72721;BME280;60835;50.974;10.322;2023-03-21T14:25:12;98731.31;;;13.54;100.00
72721;BME280;60835;50.974;10.322;2023-03-21T14:27:46;98682.47;;;13.55;100.00
72721;BME280;60835;50.974;10.322;2023-03-21T14:30:29;98663.69;;;13.65;100.00
72721;BME280;60835;50.974;10.322;2023-03-21T14:33:00;98632.75;;;12.91;100.00
72721;BME280;60835;50.974;10.322;2023-03-21T14:35:29;98540.50;;;13.17;100.00
72721;BME280;60835;50.974;10.322;2023-03-21T14:38:00;98373.16;;;13.01;100.00
72721;BME280;60835;50.974;10.322;2023-03-21T14:40:27;98339.25;;;13.19;100.00
72721;BME280;60835;50.974;10.322;2023-03-21T14:42:54;98290.44;;;12.73;100.00
72721;BME280;60835;50.974;10.322;2023-03-21T14:45:27;98238.53;;;12.71;100.00
72721;BME280;60835;50.974;10.322;2023-03-21T14:48:04;98204.16;;;12.47;100.00